Time;durP1;ratioP1;P1;durP2;ratioP2;P2;SDS_P1;SDS_P2;PMS_P1;PMS_P2;Temp;Humidity;BMP_temperature;BMP_pressure;BME280_temperature;BME280_humidity;BME280_pressure;Samples;Min_cycle;Max_cycle;Signal;HPM_P1;HPM_P2
2021/09/06 00:01:44;;;;;;;;;;;;;;;;;;5070313;28;20303;-69
2021/09/06 00:04:11;;;;;;;;;;;;;;;;;;5071027;28;19924;-67
2021/09/06 00:06:38;;;;;;;;;;;;;;;;;;5073104;28;19931;-69
2021/09/06 00:09:05;;;;;;;;;;;;;;;;;;5071702;28;19924;-67
2021/09/06 00:11:32;;;;;;;;;;;;;;;;;;5070471;28;19924;-68
2021/09/06 00:13:59;;;;;;;;;;;;;;;;;;5072965;28;19951;-66
2021/09/06 00:16:26;;;;;;;;;;;;;;;;;;5075032;28;19924;-66
2021/09/06 00:18:53;;;;;;;;;;;;;;;;;;5070454;28;19935;-68
2021/09/06 00:21:20;;;;;;;;;;;;;;;;;;5068100;28;19932;-66
2021/09/06 00:23:47;;;;;;;;;;;;;;;;;;5070273;28;20396;-67
2021/09/06 00:26:14;;;;;;;;;;;;;;;;;;5075622;28;20486;-66
2021/09/06 00:28:41;;;;;;;;;;;;;;;;;;5071952;28;20295;-66
2021/09/06 00:31:08;;;;;;;;;;;;;;;;;;5070139;28;20401;-66
2021/09/06 00:33:35;;;;;;;;;;;;;;;;;;5071723;28;19978;-66
2021/09/06 00:36:02;;;;;;;;;;;;;;;;;;5072822;28;19924;-67
2021/09/06 00:38:29;;;;;;;;;;;;;;;;;;5070802;28;19924;-66
2021/09/06 00:40:56;;;;;;;;;;;;;;;;;;5070352;28;19924;-66
2021/09/06 00:43:23;;;;;;;;;;;;;;;;;;5068907;28;19931;-67
2021/09/06 00:45:50;;;;;;;;;;;;;;;;;;5080053;28;20005;-66
2021/09/06 00:48:18;;;;;;;;;;;;;;;;;;5070706;28;20011;-68
2021/09/06 00:50:45;;;;;;;;;;;;;;;;;;5071083;28;19960;-69
2021/09/06 00:53:12;;;;;;;;;;;;;;;;;;5068828;28;20365;-67
2021/09/06 00:55:39;;;;;;;;;;;;;;;;;;5075646;28;20534;-67
2021/09/06 00:58:06;;;;;;;;;;;;;;;;;;5070444;28;19930;-69
2021/09/06 01:00:33;;;;;;;;;;;;;;;;;;5069971;28;19928;-65
2021/09/06 01:03:00;;;;;;;;;;;;;;;;;;5070748;28;20968;-67
2021/09/06 01:05:27;;;;;;;;;;;;;;;;;;5072226;28;19925;-67
2021/09/06 01:07:54;;;;;;;;;;;;;;;;;;5076637;28;19924;-67
2021/09/06 01:10:21;;;;;;;;;;;;;;;;;;5071588;28;19931;-67
2021/09/06 01:12:48;;;;;;;;;;;;;;;;;;5068975;28;20277;-68
2021/09/06 01:15:15;;;;;;;;;;;;;;;;;;5071348;28;19925;-67
2021/09/06 01:17:42;;;;;;;;;;;;;;;;;;5072133;28;20460;-67
2021/09/06 01:20:09;;;;;;;;;;;;;;;;;;5067901;28;19924;-67
2021/09/06 01:22:36;;;;;;;;;;;;;;;;;;5070013;28;19924;-67
2021/09/06 01:25:03;;;;;;;;;;;;;;;;;;5067227;28;20007;-67
2021/09/06 01:27:30;;;;;;;;;;;;;;;;;;5069016;28;19947;-69
2021/09/06 01:29:57;;;;;;;;;;;;;;;;;;5076077;28;19929;-66
2021/09/06 01:32:24;;;;;;;;;;;;;;;;;;5069892;28;20007;-68
2021/09/06 01:34:51;;;;;;;;;;;;;;;;;;5070975;28;19928;-68
2021/09/06 01:37:18;;;;;;;;;;;;;;;;;;5067668;28;19931;-67
2021/09/06 01:39:45;;;;;;;;;;;;;;;;;;5079009;28;19932;-67
2021/09/06 01:42:12;;;;;;;;;;;;;;;;;;5068996;28;20011;-67
2021/09/06 01:44:39;;;;;;;;;;;;;;;;;;5068137;28;19924;-67
2021/09/06 01:47:06;;;;;;;;;;;;;;;;;;5069275;28;19925;-67
2021/09/06 01:49:33;;;;;;;;;;;;;;;;;;5067858;28;19928;-66
2021/09/06 01:52:00;;;;;;;;;;;;;;;;;;5069021;28;19924;-67
2021/09/06 01:54:27;;;;;;;;;;;;;;;;;;5069307;28;19936;-67
2021/09/06 01:56:54;;;;;;;;;;;;;;;;;;5069541;28;19924;-67
2021/09/06 01:59:21;;;;;;;;;;;;;;;;;;5067689;28;19928;-67
2021/09/06 02:01:47;;;;;;;;;;;;;;;;;;5070415;28;19924;-68
2021/09/06 02:04:14;;;;;;;;;;;;;;;;;;5063783;28;20143;-68
2021/09/06 02:06:41;;;;;;;;;;;;;;;;;;5070174;28;19924;-68
2021/09/06 02:09:08;;;;;;;;;;;;;;;;;;5068544;28;19925;-66
2021/09/06 02:11:35;;;;;;;;;;;;;;;;;;5070526;28;19932;-66
2021/09/06 02:14:02;;;;;;;;;;;;;;;;;;5066454;28;19933;-67
2021/09/06 02:16:30;;;;;;;;;;;;;;;;;;5068545;28;20365;-66
2021/09/06 02:18:57;;;;;;;;;;;;;;;;;;5064677;28;19924;-67
2021/09/06 02:21:24;;;;;;;;;;;;;;;;;;5068903;28;19960;-67
2021/09/06 02:23:51;;;;;;;;;;;;;;;;;;5067699;28;19928;-67
2021/09/06 02:26:18;;;;;;;;;;;;;;;;;;5067147;28;20003;-67
2021/09/06 02:28:47;;;;;;;;;;;;;;;;;;5066178;28;19925;-67
2021/09/06 02:31:14;;;;;;;;;;;;;;;;;;5071287;28;19977;-67
2021/09/06 02:33:41;;;;;;;;;;;;;;;;;;5073873;28;19928;-67
2021/09/06 02:36:08;;;;;;;;;;;;;;;;;;5067504;28;20380;-66
2021/09/06 02:38:35;;;;;;;;;;;;;;;;;;5068028;28;19925;-66
2021/09/06 02:41:02;;;;;;;;;;;;;;;;;;5070178;28;19925;-66
2021/09/06 02:43:29;;;;;;;;;;;;;;;;;;5069070;28;19930;-67
2021/09/06 02:45:56;;;;;;;;;;;;;;;;;;5070454;28;19931;-67
2021/09/06 02:48:23;;;;;;;;;;;;;;;;;;5066753;28;19925;-68
2021/09/06 02:50:50;;;;;;;;;;;;;;;;;;5070249;28;19935;-68
2021/09/06 02:53:17;;;;;;;;;;;;;;;;;;5068755;28;19928;-67
2021/09/06 02:55:44;;;;;;;;;;;;;;;;;;5068146;28;19939;-66
2021/09/06 02:58:11;;;;;;;;;;;;;;;;;;5067902;28;19940;-68
2021/09/06 03:00:38;;;;;;;;;;;;;;;;;;5073501;28;19975;-67
2021/09/06 03:03:05;;;;;;;;;;;;;;;;;;5069801;28;19931;-67
2021/09/06 03:05:32;;;;;;;;;;;;;;;;;;5066297;28;19924;-67
2021/09/06 03:07:59;;;;;;;;;;;;;;;;;;5067490;28;19924;-67
2021/09/06 03:10:26;;;;;;;;;;;;;;;;;;5065032;28;19924;-67
2021/09/06 03:12:53;;;;;;;;;;;;;;;;;;5070674;28;19969;-67
2021/09/06 03:15:20;;;;;;;;;;;;;;;;;;5067328;28;20668;-66
2021/09/06 03:17:47;;;;;;;;;;;;;;;;;;5069654;28;19932;-67
2021/09/06 03:20:14;;;;;;;;;;;;;;;;;;5068783;28;20038;-66
2021/09/06 03:22:41;;;;;;;;;;;;;;;;;;5068628;28;20019;-67
2021/09/06 03:25:08;;;;;;;;;;;;;;;;;;5067470;28;19924;-67
2021/09/06 03:27:35;;;;;;;;;;;;;;;;;;5070309;28;19939;-66
2021/09/06 03:30:02;;;;;;;;;;;;;;;;;;5070416;28;20441;-66
2021/09/06 03:32:29;;;;;;;;;;;;;;;;;;5069513;28;20311;-68
2021/09/06 03:34:56;;;;;;;;;;;;;;;;;;5068434;28;20452;-68
2021/09/06 03:37:23;;;;;;;;;;;;;;;;;;5068393;28;19925;-68
2021/09/06 03:39:50;;;;;;;;;;;;;;;;;;5064982;28;20398;-68
2021/09/06 03:42:17;;;;;;;;;;;;;;;;;;5094678;22;19932;-71
2021/09/06 03:44:44;;;;;;;;;;;;;;;;;;5069969;28;20294;-70
2021/09/06 03:47:11;;;;;;;;;;;;;;;;;;5068376;28;19924;-71
2021/09/06 03:49:38;;;;;;;;;;;;;;;;;;5071844;28;19924;-71
2021/09/06 03:52:05;;;;;;;;;;;;;;;;;;5071731;28;20400;-70
2021/09/06 03:54:32;;;;;;;;;;;;;;;;;;5049362;28;20108;-71
2021/09/06 03:56:59;;;;;;;;;;;;;;;;;;5051172;28;19925;-71
2021/09/06 03:59:25;;;;;;;;;;;;;;;;;;5049460;28;19935;-71
2021/09/06 04:01:52;;;;;;;;;;;;;;;;;;5050773;28;20016;-71
2021/09/06 04:04:19;;;;;;;;;;;;;;;;;;5051206;28;19931;-72
2021/09/06 04:06:48;;;;;;;;;;;;;;;;;;5049271;28;19929;-71
2021/09/06 04:09:15;;;;;;;;;;;;;;;;;;5051125;28;19925;-71
2021/09/06 04:11:41;;;;;;;;;;;;;;;;;;5046634;28;19925;-72
2021/09/06 04:14:12;;;;;;;;;;;;;;;;;;5048165;28;20343;-71
2021/09/06 04:16:39;;;;;;;;;;;;;;;;;;5047573;28;19924;-72
2021/09/06 04:19:06;;;;;;;;;;;;;;;;;;5053204;28;19929;-71
2021/09/06 04:21:33;;;;;;;;;;;;;;;;;;5051980;28;19925;-71
2021/09/06 04:24:00;;;;;;;;;;;;;;;;;;5045942;28;19928;-71
2021/09/06 04:26:27;;;;;;;;;;;;;;;;;;5049606;28;19929;-71
2021/09/06 04:28:54;;;;;;;;;;;;;;;;;;5049772;28;19925;-71
2021/09/06 04:31:21;;;;;;;;;;;;;;;;;;5052074;28;19932;-72
2021/09/06 04:33:48;;;;;;;;;;;;;;;;;;5048255;28;20388;-71
2021/09/06 04:36:15;;;;;;;;;;;;;;;;;;5053641;28;19925;-72
2021/09/06 04:38:42;;;;;;;;;;;;;;;;;;5052675;28;19964;-71
2021/09/06 04:41:09;;;;;;;;;;;;;;;;;;5047893;28;20299;-72
2021/09/06 04:43:36;;;;;;;;;;;;;;;;;;5053216;28;20440;-71
2021/09/06 04:46:03;;;;;;;;;;;;;;;;;;5056804;28;19925;-72
2021/09/06 04:48:30;;;;;;;;;;;;;;;;;;5050162;28;19929;-71
2021/09/06 04:50:56;;;;;;;;;;;;;;;;;;5050223;28;19928;-72
2021/09/06 04:53:23;;;;;;;;;;;;;;;;;;5054683;28;20399;-70
2021/09/06 04:55:50;;;;;;;;;;;;;;;;;;5059630;28;20172;-71
2021/09/06 04:58:17;;;;;;;;;;;;;;;;;;5052696;28;19945;-72
2021/09/06 05:00:45;;;;;;;;;;;;;;;;;;5047046;28;19933;-72
2021/09/06 05:03:12;;;;;;;;;;;;;;;;;;5051653;28;19979;-70
2021/09/06 05:05:38;;;;;;;;;;;;;;;;;;5055559;28;19931;-71
2021/09/06 05:08:05;;;;;;;;;;;;;;;;;;5049707;28;19933;-71
2021/09/06 05:10:32;;;;;;;;;;;;;;;;;;5047140;28;19947;-71
2021/09/06 05:12:59;;;;;;;;;;;;;;;;;;5046583;28;20057;-71
2021/09/06 05:15:26;;;;;;;;;;;;;;;;;;5053557;28;19960;-71
2021/09/06 05:17:55;;;;;;;;;;;;;;;;;;5052965;28;19975;-71
2021/09/06 05:20:22;;;;;;;;;;;;;;;;;;5048495;28;19932;-72
2021/09/06 05:22:49;;;;;;;;;;;;;;;;;;5049238;28;19932;-71
2021/09/06 05:25:16;;;;;;;;;;;;;;;;;;5050902;28;19925;-72
2021/09/06 05:27:43;;;;;;;;;;;;;;;;;;5051831;28;20027;-72
2021/09/06 05:30:10;;;;;;;;;;;;;;;;;;5048559;28;20015;-71
2021/09/06 05:32:37;;;;;;;;;;;;;;;;;;5047540;28;19924;-71
2021/09/06 05:35:04;;;;;;;;;;;;;;;;;;5052198;28;19948;-71
2021/09/06 05:37:31;;;;;;;;;;;;;;;;;;5051369;28;20384;-71
2021/09/06 05:39:58;;;;;;;;;;;;;;;;;;5047158;28;19933;-71
2021/09/06 05:42:25;;;;;;;;;;;;;;;;;;5043852;28;19932;-72
2021/09/06 05:44:52;;;;;;;;;;;;;;;;;;5044905;28;19924;-71
2021/09/06 05:47:19;;;;;;;;;;;;;;;;;;5049239;28;20440;-71
2021/09/06 05:49:46;;;;;;;;;;;;;;;;;;5056784;28;19979;-71
2021/09/06 05:52:13;;;;;;;;;;;;;;;;;;5048243;28;20405;-71
2021/09/06 05:54:40;;;;;;;;;;;;;;;;;;5042314;28;19972;-71
2021/09/06 05:57:07;;;;;;;;;;;;;;;;;;5047411;28;19924;-71
2021/09/06 05:59:33;;;;;;;;;;;;;;;;;;5048796;28;19932;-71
2021/09/06 06:02:00;;;;;;;;;;;;;;;;;;5050026;28;19925;-71
2021/09/06 06:04:27;;;;;;;;;;;;;;;;;;5047343;28;19929;-71
2021/09/06 06:06:54;;;;;;;;;;;;;;;;;;5042520;28;20192;-71
2021/09/06 06:09:21;;;;;;;;;;;;;;;;;;5048638;28;19932;-72
2021/09/06 06:11:48;;;;;;;;;;;;;;;;;;5046743;28;19924;-71
2021/09/06 06:14:15;;;;;;;;;;;;;;;;;;5045346;28;19929;-71
2021/09/06 06:16:42;;;;;;;;;;;;;;;;;;5046119;28;19968;-71
2021/09/06 06:19:09;;;;;;;;;;;;;;;;;;5046812;28;20385;-71
2021/09/06 06:21:36;;;;;;;;;;;;;;;;;;5043285;28;19929;-70
2021/09/06 06:24:03;;;;;;;;;;;;;;;;;;5044905;28;19932;-71
2021/09/06 06:26:30;;;;;;;;;;;;;;;;;;5045837;28;19929;-69
2021/09/06 06:28:58;;;;;;;;;;;;;;;;;;5042925;28;20336;-70
2021/09/06 06:31:25;;;;;;;;;;;;;;;;;;5039449;28;20293;-71
2021/09/06 06:33:52;;;;;;;;;;;;;;;;;;5038011;28;19956;-72
2021/09/06 06:36:19;;;;;;;;;;;;;;;;;;5038239;28;19925;-71
2021/09/06 06:38:49;;;;;;;;;;;;;;;;;;5040810;28;19925;-71
2021/09/06 06:41:16;;;;;;;;;;;;;;;;;;5039889;28;19935;-71
2021/09/06 06:43:43;;;;;;;;;;;;;;;;;;5036661;28;19931;-71
2021/09/06 06:46:14;;;;;;;;;;;;;;;;;;5041734;28;20335;-69
2021/09/06 06:48:41;;;;;;;;;;;;;;;;;;5043530;28;20023;-70
2021/09/06 06:51:08;;;;;;;;;;;;;;;;;;5046283;28;19933;-71
2021/09/06 06:53:36;;;;;;;;;;;;;;;;;;5048098;28;19925;-71
2021/09/06 06:56:03;;;;;;;;;;;;;;;;;;5047912;28;20446;-70
2021/09/06 06:58:30;;;;;;;;;;;;;;;;;;5045884;28;19951;-71
2021/09/06 07:00:57;;;;;;;;;;;;;;;;;;5047483;28;19932;-69
2021/09/06 07:03:24;;;;;;;;;;;;;;;;;;5044653;28;19925;-69
2021/09/06 07:05:51;;;;;;;;;;;;;;;;;;5042166;28;20028;-69
2021/09/06 07:08:18;;;;;;;;;;;;;;;;;;5044616;28;20297;-71
2021/09/06 07:10:45;;;;;;;;;;;;;;;;;;5043918;28;19924;-71
2021/09/06 07:13:12;;;;;;;;;;;;;;;;;;5047095;28;19982;-70
2021/09/06 07:15:39;;;;;;;;;;;;;;;;;;5043990;28;19925;-71
2021/09/06 07:18:08;;;;;;;;;;;;;;;;;;5046438;28;19925;-71
2021/09/06 07:20:35;;;;;;;;;;;;;;;;;;5050255;28;19928;-70
2021/09/06 07:23:01;;;;;;;;;;;;;;;;;;5047004;28;19928;-71
2021/09/06 07:25:28;;;;;;;;;;;;;;;;;;5046795;28;20419;-66
2021/09/06 07:27:55;;;;;;;;;;;;;;;;;;5052897;28;19924;-69
2021/09/06 07:30:22;;;;;;;;;;;;;;;;;;5048925;28;19933;-69
2021/09/06 07:32:51;;;;;;;;;;;;;;;;;;5052401;28;19931;-69
2021/09/06 07:35:18;;;;;;;;;;;;;;;;;;5049532;28;20365;-70
2021/09/06 07:37:45;;;;;;;;;;;;;;;;;;5052795;28;19924;-71
2021/09/06 07:40:12;;;;;;;;;;;;;;;;;;5046358;28;19939;-70
2021/09/06 07:42:39;;;;;;;;;;;;;;;;;;5043607;28;19928;-70
2021/09/06 07:45:05;;;;;;;;;;;;;;;;;;5050720;28;19925;-70
2021/09/06 07:47:32;;;;;;;;;;;;;;;;;;5053590;28;19928;-71
2021/09/06 07:50:00;;;;;;;;;;;;;;;;;;5052560;28;19931;-70
2021/09/06 07:52:27;;;;;;;;;;;;;;;;;;5050310;28;19929;-71
2021/09/06 07:54:54;;;;;;;;;;;;;;;;;;5044376;28;19925;-70
2021/09/06 07:57:21;;;;;;;;;;;;;;;;;;5050308;28;19928;-70
2021/09/06 07:59:48;;;;;;;;;;;;;;;;;;5055817;28;19928;-70
2021/09/06 08:02:15;;;;;;;;;;;;;;;;;;5049754;28;19970;-70
2021/09/06 08:04:42;;;;;;;;;;;;;;;;;;5045321;28;19928;-69
2021/09/06 08:07:09;;;;;;;;;;;;;;;;;;5048434;28;19929;-71
2021/09/06 08:09:36;;;;;;;;;;;;;;;;;;5048718;28;19925;-70
2021/09/06 08:12:03;;;;;;;;;;;;;;;;;;5052682;28;19924;-70
2021/09/06 08:14:30;;;;;;;;;;;;;;;;;;5047463;28;19931;-70
2021/09/06 08:16:57;;;;;;;;;;;;;;;;;;5047239;28;19931;-69
2021/09/06 08:19:27;;;;;;;;;;;;;;;;;;5043504;28;20015;-68
2021/09/06 08:21:55;;;;;;;;;;;;;;;;;;5046346;28;19982;-70
2021/09/06 08:24:23;;;;;;;;;;;;;;;;;;5050363;28;20016;-70
2021/09/06 08:26:50;;;;;;;;;;;;;;;;;;5047868;28;19929;-71
2021/09/06 08:29:17;;;;;;;;;;;;;;;;;;5043387;28;20026;-70
2021/09/06 08:31:44;;;;;;;;;;;;;;;;;;5051185;28;19925;-70
2021/09/06 08:34:11;;;;;;;;;;;;;;;;;;5040270;28;20399;-71
2021/09/06 08:36:38;;;;;;;;;;;;;;;;;;5048405;28;19960;-70
2021/09/06 08:39:05;;;;;;;;;;;;;;;;;;5047831;28;19925;-70
2021/09/06 08:41:31;;;;;;;;;;;;;;;;;;5049876;28;19940;-69
2021/09/06 08:43:58;;;;;;;;;;;;;;;;;;5042130;28;19933;-69
2021/09/06 08:46:25;;;;;;;;;;;;;;;;;;5046861;28;19931;-69
2021/09/06 08:48:52;;;;;;;;;;;;;;;;;;5048434;28;20301;-69
2021/09/06 08:51:19;;;;;;;;;;;;;;;;;;5047510;28;20532;-69
2021/09/06 08:53:46;;;;;;;;;;;;;;;;;;5048766;28;19932;-69
2021/09/06 08:56:13;;;;;;;;;;;;;;;;;;5050075;28;19932;-69
2021/09/06 08:58:41;;;;;;;;;;;;;;;;;;5049226;28;19931;-68
2021/09/06 09:01:07;;;;;;;;;;;;;;;;;;5047543;28;19925;-71
2021/09/06 09:03:34;;;;;;;;;;;;;;;;;;5046293;28;19925;-71
2021/09/06 09:06:01;;;;;;;;;;;;;;;;;;5047377;28;19925;-68
2021/09/06 09:08:28;;;;;;;;;;;;;;;;;;5046340;28;19968;-69
2021/09/06 09:10:55;;;;;;;;;;;;;;;;;;5048909;28;19928;-68
2021/09/06 09:13:22;;;;;;;;;;;;;;;;;;5049266;28;19924;-68
2021/09/06 09:15:49;;;;;;;;;;;;;;;;;;5048107;28;20152;-69
2021/09/06 09:18:16;;;;;;;;;;;;;;;;;;5048037;28;19991;-68
2021/09/06 09:20:43;;;;;;;;;;;;;;;;;;5047522;28;19929;-68
2021/09/06 09:23:10;;;;;;;;;;;;;;;;;;5045650;28;19929;-69
2021/09/06 09:25:37;;;;;;;;;;;;;;;;;;5048868;28;19933;-69
2021/09/06 09:28:04;;;;;;;;;;;;;;;;;;5045772;28;20579;-69
2021/09/06 09:30:31;;;;;;;;;;;;;;;;;;5049761;28;19933;-68
2021/09/06 09:32:57;;;;;;;;;;;;;;;;;;5047546;28;19924;-68
2021/09/06 09:35:24;;;;;;;;;;;;;;;;;;5042188;28;19933;-67
2021/09/06 09:37:51;;;;;;;;;;;;;;;;;;5047987;28;19925;-67
2021/09/06 09:40:18;;;;;;;;;;;;;;;;;;5046658;28;19935;-70
2021/09/06 09:42:45;;;;;;;;;;;;;;;;;;5062144;22;20365;-71
2021/09/06 09:45:12;;;;;;;;;;;;;;;;;;5045944;28;19931;-70
2021/09/06 09:47:39;;;;;;;;;;;;;;;;;;5051369;28;19932;-70
2021/09/06 09:50:10;;;;;;;;;;;;;;;;;;5045599;28;20273;-71
2021/09/06 09:52:37;;;;;;;;;;;;;;;;;;5043154;28;19979;-69
2021/09/06 09:55:04;;;;;;;;;;;;;;;;;;5049977;28;20289;-69
2021/09/06 09:57:31;;;;;;;;;;;;;;;;;;5043903;28;19936;-69
2021/09/06 09:59:58;;;;;;;;;;;;;;;;;;5043428;28;20108;-70
2021/09/06 10:02:25;;;;;;;;;;;;;;;;;;5041082;28;19952;-71
2021/09/06 10:04:52;;;;;;;;;;;;;;;;;;5047082;28;19947;-71
2021/09/06 10:07:19;;;;;;;;;;;;;;;;;;5048878;28;19976;-71
2021/09/06 10:09:46;;;;;;;;;;;;;;;;;;5048080;28;20131;-71
2021/09/06 10:12:13;;;;;;;;;;;;;;;;;;5033810;28;19929;-71
2021/09/06 10:14:40;;;;;;;;;;;;;;;;;;5045465;28;19925;-71
2021/09/06 10:17:07;;;;;;;;;;;;;;;;;;5042554;28;19932;-71
2021/09/06 10:19:34;;;;;;;;;;;;;;;;;;5045705;28;19925;-71
2021/09/06 10:22:00;;;;;;;;;;;;;;;;;;5049181;28;19929;-71
2021/09/06 10:24:27;;;;;;;;;;;;;;;;;;5044983;28;19924;-70
2021/09/06 10:26:54;;;;;;;;;;;;;;;;;;5048235;28;20004;-70
2021/09/06 10:29:21;;;;;;;;;;;;;;;;;;5042189;28;20389;-70
2021/09/06 10:31:48;;;;;;;;;;;;;;;;;;5042359;28;19925;-71
2021/09/06 10:34:15;;;;;;;;;;;;;;;;;;5044163;28;19924;-71
2021/09/06 10:36:42;;;;;;;;;;;;;;;;;;5042169;28;19948;-70
2021/09/06 10:39:09;;;;;;;;;;;;;;;;;;5041714;28;20270;-70
2021/09/06 10:41:36;;;;;;;;;;;;;;;;;;5042189;28;19925;-69
2021/09/06 10:44:03;;;;;;;;;;;;;;;;;;5048010;28;19964;-70
2021/09/06 10:46:30;;;;;;;;;;;;;;;;;;5042745;28;20019;-71
2021/09/06 10:48:57;;;;;;;;;;;;;;;;;;5046622;28;19925;-72
2021/09/06 10:51:25;;;;;;;;;;;;;;;;;;5041332;28;20028;-71
2021/09/06 10:53:52;;;;;;;;;;;;;;;;;;5051266;28;20401;-71
2021/09/06 10:56:19;;;;;;;;;;;;;;;;;;5045458;28;19933;-70
2021/09/06 10:58:46;;;;;;;;;;;;;;;;;;5044511;28;19968;-71
2021/09/06 11:01:13;;;;;;;;;;;;;;;;;;5048352;28;19929;-71
2021/09/06 11:03:40;;;;;;;;;;;;;;;;;;5052440;28;20444;-69
2021/09/06 11:06:07;;;;;;;;;;;;;;;;;;5049659;28;19935;-70
2021/09/06 11:08:34;;;;;;;;;;;;;;;;;;5050534;28;19925;-69
2021/09/06 11:11:01;;;;;;;;;;;;;;;;;;5053873;28;19931;-71
2021/09/06 11:13:28;;;;;;;;;;;;;;;;;;5048483;28;20049;-71
2021/09/06 11:15:55;;;;;;;;;;;;;;;;;;5052968;28;20023;-69
2021/09/06 11:18:22;;;;;;;;;;;;;;;;;;5044856;28;20403;-69
2021/09/06 11:20:49;;;;;;;;;;;;;;;;;;5048421;28;19924;-70
2021/09/06 11:23:15;;;;;;;;;;;;;;;;;;5046483;28;19925;-69
2021/09/06 11:25:42;;;;;;;;;;;;;;;;;;5044846;28;19925;-70
2021/09/06 11:28:09;;;;;;;;;;;;;;;;;;5048814;28;19929;-71
2021/09/06 11:30:36;;;;;;;;;;;;;;;;;;5039259;28;20221;-70
2021/09/06 11:33:05;;;;;;;;;;;;;;;;;;5049861;28;19935;-72
2021/09/06 11:35:33;;;;;;;;;;;;;;;;;;5043736;28;20543;-70
2021/09/06 11:38:00;;;;;;;;;;;;;;;;;;5046383;28;19932;-71
2021/09/06 11:40:29;;;;;;;;;;;;;;;;;;5047831;28;19925;-71
2021/09/06 11:42:56;;;;;;;;;;;;;;;;;;5043334;28;20004;-70
2021/09/06 11:45:23;;;;;;;;;;;;;;;;;;5047167;28;20339;-70
2021/09/06 11:47:49;;;;;;;;;;;;;;;;;;5046218;28;20016;-72
2021/09/06 11:50:16;;;;;;;;;;;;;;;;;;5047665;28;19925;-70
2021/09/06 11:52:43;;;;;;;;;;;;;;;;;;5043732;28;19932;-71
2021/09/06 11:55:10;;;;;;;;;;;;;;;;;;5044168;28;19985;-71
2021/09/06 11:57:37;;;;;;;;;;;;;;;;;;5047387;28;20406;-69
2021/09/06 12:00:04;;;;;;;;;;;;;;;;;;5047234;28;19928;-70
2021/09/06 12:02:31;;;;;;;;;;;;;;;;;;5048597;28;20269;-69
2021/09/06 12:04:58;;;;;;;;;;;;;;;;;;5043951;28;19986;-69
2021/09/06 12:07:25;;;;;;;;;;;;;;;;;;5047747;28;20403;-68
2021/09/06 12:09:52;;;;;;;;;;;;;;;;;;5045654;28;19982;-71
2021/09/06 12:12:19;;;;;;;;;;;;;;;;;;5044412;28;19951;-69
2021/09/06 12:14:46;;;;;;;;;;;;;;;;;;5046066;28;20393;-71
2021/09/06 12:17:13;;;;;;;;;;;;;;;;;;5043624;28;19925;-69
2021/09/06 12:19:40;;;;;;;;;;;;;;;;;;5045815;28;19932;-69
2021/09/06 12:22:07;;;;;;;;;;;;;;;;;;5044761;28;19932;-70
2021/09/06 12:24:34;;;;;;;;;;;;;;;;;;5042864;28;19929;-70
2021/09/06 12:27:01;;;;;;;;;;;;;;;;;;5044984;28;20278;-69
2021/09/06 12:29:28;;;;;;;;;;;;;;;;;;5042519;28;19935;-69
2021/09/06 12:31:55;;;;;;;;;;;;;;;;;;5046768;28;19935;-70
2021/09/06 12:34:22;;;;;;;;;;;;;;;;;;5044591;28;20404;-69
2021/09/06 12:36:49;;;;;;;;;;;;;;;;;;5047709;28;19929;-71
2021/09/06 12:39:16;;;;;;;;;;;;;;;;;;5045236;28;19924;-71
2021/09/06 12:41:43;;;;;;;;;;;;;;;;;;5043062;28;20540;-71
2021/09/06 12:44:10;;;;;;;;;;;;;;;;;;5046087;28;19925;-71
2021/09/06 12:46:36;;;;;;;;;;;;;;;;;;5044970;28;19925;-71
2021/09/06 12:49:03;;;;;;;;;;;;;;;;;;5044518;28;19964;-71
2021/09/06 12:51:30;;;;;;;;;;;;;;;;;;5047871;28;20007;-70
2021/09/06 12:53:57;;;;;;;;;;;;;;;;;;5043070;28;20381;-71
2021/09/06 12:56:24;;;;;;;;;;;;;;;;;;5045220;28;19925;-71
2021/09/06 12:58:52;;;;;;;;;;;;;;;;;;5042764;28;19983;-71
2021/09/06 13:01:19;;;;;;;;;;;;;;;;;;5047075;28;20296;-70
2021/09/06 13:03:46;;;;;;;;;;;;;;;;;;5047086;28;20399;-70
2021/09/06 13:06:13;;;;;;;;;;;;;;;;;;5042979;28;19925;-71
2021/09/06 13:08:42;;;;;;;;;;;;;;;;;;5047669;28;19929;-70
2021/09/06 13:11:09;;;;;;;;;;;;;;;;;;5046068;28;19924;-69
2021/09/06 13:13:36;;;;;;;;;;;;;;;;;;5052964;28;19924;-70
2021/09/06 13:16:03;;;;;;;;;;;;;;;;;;5048896;28;19931;-72
2021/09/06 13:18:30;;;;;;;;;;;;;;;;;;5051449;28;19929;-71
2021/09/06 13:20:58;;;;;;;;;;;;;;;;;;5048251;28;19980;-72
2021/09/06 13:23:25;;;;;;;;;;;;;;;;;;5044744;28;19929;-71
2021/09/06 13:25:52;;;;;;;;;;;;;;;;;;5046542;28;19925;-70
2021/09/06 13:28:19;;;;;;;;;;;;;;;;;;5046190;28;20007;-71
2021/09/06 13:30:45;;;;;;;;;;;;;;;;;;5048007;28;19933;-70
2021/09/06 13:33:12;;;;;;;;;;;;;;;;;;5044553;28;19924;-71
2021/09/06 13:35:39;;;;;;;;;;;;;;;;;;5047062;28;19929;-70
2021/09/06 13:38:06;;;;;;;;;;;;;;;;;;5046471;28;20277;-71
2021/09/06 13:40:33;;;;;;;;;;;;;;;;;;5046614;28;19925;-71
2021/09/06 13:43:00;;;;;;;;;;;;;;;;;;5046325;28;19934;-72
2021/09/06 13:45:27;;;;;;;;;;;;;;;;;;5047240;28;19924;-70
2021/09/06 13:47:54;;;;;;;;;;;;;;;;;;5042149;28;19964;-69
2021/09/06 13:50:21;;;;;;;;;;;;;;;;;;5042497;28;19929;-70
2021/09/06 13:52:48;;;;;;;;;;;;;;;;;;5045373;28;19925;-69
2021/09/06 13:55:15;;;;;;;;;;;;;;;;;;5045693;28;19939;-70
2021/09/06 13:57:42;;;;;;;;;;;;;;;;;;5045032;28;20016;-70
2021/09/06 14:00:09;;;;;;;;;;;;;;;;;;5043138;28;19925;-71
2021/09/06 14:02:35;;;;;;;;;;;;;;;;;;5044113;28;20328;-68
2021/09/06 14:05:02;;;;;;;;;;;;;;;;;;5045034;28;19928;-66
2021/09/06 14:07:29;;;;;;;;;;;;;;;;;;5045973;28;19925;-71
2021/09/06 14:09:56;;;;;;;;;;;;;;;;;;5042308;28;20015;-67
2021/09/06 14:12:23;;;;;;;;;;;;;;;;;;5047005;28;19929;-70
2021/09/06 14:14:50;;;;;;;;;;;;;;;;;;5045963;28;20307;-67
2021/09/06 14:17:17;;;;;;;;;;;;;;;;;;5042910;28;19925;-66
2021/09/06 14:19:44;;;;;;;;;;;;;;;;;;5042054;28;19939;-69
2021/09/06 14:22:11;;;;;;;;;;;;;;;;;;5038219;28;19925;-66
2021/09/06 14:24:38;;;;;;;;;;;;;;;;;;5046847;28;20307;-68
2021/09/06 14:27:05;;;;;;;;;;;;;;;;;;5042647;28;20404;-67
2021/09/06 14:29:32;;;;;;;;;;;;;;;;;;5044821;28;19940;-67
2021/09/06 14:31:59;;;;;;;;;;;;;;;;;;5045851;28;20412;-68
2021/09/06 14:34:26;;;;;;;;;;;;;;;;;;5041892;28;19929;-69
2021/09/06 14:36:54;;;;;;;;;;;;;;;;;;5043627;28;20450;-69
2021/09/06 14:39:21;;;;;;;;;;;;;;;;;;5042782;28;19951;-68
2021/09/06 14:41:48;;;;;;;;;;;;;;;;;;5043949;28;19931;-69
2021/09/06 14:44:15;;;;;;;;;;;;;;;;;;5034777;28;20055;-68
2021/09/06 14:46:44;;;;;;;;;;;;;;;;;;5037191;28;20419;-69
2021/09/06 14:49:11;;;;;;;;;;;;;;;;;;5035958;28;20011;-67
2021/09/06 14:51:38;;;;;;;;;;;;;;;;;;5046608;28;19939;-69
2021/09/06 14:54:05;;;;;;;;;;;;;;;;;;5044462;28;19925;-70
2021/09/06 14:56:32;;;;;;;;;;;;;;;;;;5042166;28;19931;-70
2021/09/06 14:58:59;;;;;;;;;;;;;;;;;;5043209;28;20392;-69
2021/09/06 15:01:26;;;;;;;;;;;;;;;;;;5041836;28;19940;-70
2021/09/06 15:03:56;;;;;;;;;;;;;;;;;;5045167;28;19925;-70
2021/09/06 15:06:23;;;;;;;;;;;;;;;;;;5042503;28;19936;-69
2021/09/06 15:08:50;;;;;;;;;;;;;;;;;;5041045;28;19929;-69
2021/09/06 15:11:17;;;;;;;;;;;;;;;;;;5042365;28;20400;-68
2021/09/06 15:13:44;;;;;;;;;;;;;;;;;;5046230;28;19928;-71
2021/09/06 15:16:11;;;;;;;;;;;;;;;;;;5046372;28;19925;-72
2021/09/06 15:18:38;;;;;;;;;;;;;;;;;;5044406;28;20470;-73
2021/09/06 15:21:05;;;;;;;;;;;;;;;;;;5044509;28;19925;-70
2021/09/06 15:23:32;;;;;;;;;;;;;;;;;;5043253;28;19964;-72
2021/09/06 15:26:02;;;;;;;;;;;;;;;;;;5042802;28;20444;-69
2021/09/06 15:28:29;;;;;;;;;;;;;;;;;;5045446;28;19935;-71
2021/09/06 15:30:56;;;;;;;;;;;;;;;;;;5044783;28;19940;-70
2021/09/06 15:33:23;;;;;;;;;;;;;;;;;;5040713;28;19932;-70
2021/09/06 15:35:53;;;;;;;;;;;;;;;;;;5046767;28;19931;-70
2021/09/06 15:38:20;;;;;;;;;;;;;;;;;;5039931;28;20172;-71
2021/09/06 15:40:47;;;;;;;;;;;;;;;;;;5049254;28;20274;-70
2021/09/06 15:43:14;;;;;;;;;;;;;;;;;;5058588;22;19924;-72
2021/09/06 15:45:41;;;;;;;;;;;;;;;;;;5047632;28;19929;-71
2021/09/06 15:48:08;;;;;;;;;;;;;;;;;;5047958;28;19936;-71
2021/09/06 15:50:35;;;;;;;;;;;;;;;;;;5046021;28;19990;-71
2021/09/06 15:53:04;;;;;;;;;;;;;;;;;;5046886;28;19925;-70
2021/09/06 15:55:31;;;;;;;;;;;;;;;;;;5047568;28;20016;-71
2021/09/06 15:57:58;;;;;;;;;;;;;;;;;;5049217;28;19979;-72
2021/09/06 16:00:25;;;;;;;;;;;;;;;;;;5044682;28;20379;-71
2021/09/06 16:02:52;;;;;;;;;;;;;;;;;;5046180;28;19925;-71
2021/09/06 16:05:19;;;;;;;;;;;;;;;;;;5047870;28;19925;-71
2021/09/06 16:07:46;;;;;;;;;;;;;;;;;;5047610;28;20322;-72
2021/09/06 16:10:13;;;;;;;;;;;;;;;;;;5045953;28;19925;-71
2021/09/06 16:12:40;;;;;;;;;;;;;;;;;;5041284;28;20020;-71
2021/09/06 16:15:07;;;;;;;;;;;;;;;;;;5045803;28;20348;-71
2021/09/06 16:17:34;;;;;;;;;;;;;;;;;;5048095;28;19929;-71
2021/09/06 16:20:01;;;;;;;;;;;;;;;;;;5046137;28;19925;-70
2021/09/06 16:22:28;;;;;;;;;;;;;;;;;;5048259;28;19954;-71
2021/09/06 16:24:55;;;;;;;;;;;;;;;;;;5043769;28;19976;-71
2021/09/06 16:27:24;;;;;;;;;;;;;;;;;;5048469;28;20019;-73
2021/09/06 16:29:51;;;;;;;;;;;;;;;;;;5046467;28;19925;-71
2021/09/06 16:32:19;;;;;;;;;;;;;;;;;;5045101;28;19931;-70
2021/09/06 16:34:46;;;;;;;;;;;;;;;;;;5054251;28;19987;-72
2021/09/06 16:37:13;;;;;;;;;;;;;;;;;;5046229;28;19929;-70
2021/09/06 16:39:39;;;;;;;;;;;;;;;;;;5044692;28;19978;-71
2021/09/06 16:42:08;;;;;;;;;;;;;;;;;;5043078;28;19924;-72
2021/09/06 16:44:35;;;;;;;;;;;;;;;;;;5048100;28;20030;-72